sensor_id;sensor_type;location;lat;lon;timestamp;pressure;altitude;pressure_sealevel;temperature;humidity
24666;BME280;29726;53.532;-1.478;2024-03-02T00:02:15;98101.25;;;6.58;100.00
24666;BME280;29726;53.532;-1.478;2024-03-02T00:04:59;98101.75;;;6.56;100.00
24666;BME280;29726;53.532;-1.478;2024-03-02T00:07:44;98096.19;;;6.56;100.00
24666;BME280;29726;53.532;-1.478;2024-03-02T00:10:37;98093.19;;;6.54;100.00
24666;BME280;29726;53.532;-1.478;2024-03-02T00:13:23;98099.97;;;6.53;100.00
24666;BME280;29726;53.532;-1.478;2024-03-02T00:16:08;98094.69;;;6.50;100.00
24666;BME280;29726;53.532;-1.478;2024-03-02T00:18:52;98089.91;;;6.51;100.00
24666;BME280;29726;53.532;-1.478;2024-03-02T00:21:35;98080.28;;;6.46;100.00
24666;BME280;29726;53.532;-1.478;2024-03-02T00:24:32;98094.69;;;6.50;100.00
24666;BME280;29726;53.532;-1.478;2024-03-02T00:27:21;98094.41;;;6.48;100.00
24666;BME280;29726;53.532;-1.478;2024-03-02T00:33:31;98090.63;;;6.46;100.00
24666;BME280;29726;53.532;-1.478;2024-03-02T00:36:21;98083.84;;;6.47;100.00
24666;BME280;29726;53.532;-1.478;2024-03-02T00:39:06;98077.78;;;6.43;100.00
24666;BME280;29726;53.532;-1.478;2024-03-02T00:41:51;98072.25;;;6.43;100.00
24666;BME280;29726;53.532;-1.478;2024-03-02T00:44:35;98085.06;;;6.40;100.00
24666;BME280;29726;53.532;-1.478;2024-03-02T00:47:21;98084.31;;;6.40;100.00
24666;BME280;29726;53.532;-1.478;2024-03-02T00:50:05;98096.41;;;6.42;100.00
24666;BME280;29726;53.532;-1.478;2024-03-02T00:52:50;98075.97;;;6.34;100.00
24666;BME280;29726;53.532;-1.478;2024-03-02T00:55:36;98081.56;;;6.40;100.00
24666;BME280;29726;53.532;-1.478;2024-03-02T00:58:20;98070.69;;;6.36;100.00
24666;BME280;29726;53.532;-1.478;2024-03-02T01:01:05;98064.13;;;6.34;100.00
24666;BME280;29726;53.532;-1.478;2024-03-02T01:03:49;98071.72;;;6.39;100.00
24666;BME280;29726;53.532;-1.478;2024-03-02T01:06:34;98081.25;;;6.38;100.00
24666;BME280;29726;53.532;-1.478;2024-03-02T01:09:18;98072.44;;;6.34;100.00
24666;BME280;29726;53.532;-1.478;2024-03-02T01:12:02;98075.47;;;6.36;100.00
24666;BME280;29726;53.532;-1.478;2024-03-02T01:14:46;98055.53;;;6.26;100.00
24666;BME280;29726;53.532;-1.478;2024-03-02T01:17:30;98076.97;;;6.37;100.00
24666;BME280;29726;53.532;-1.478;2024-03-02T01:20:14;98069.94;;;6.36;100.00
24666;BME280;29726;53.532;-1.478;2024-03-02T01:22:58;98060.34;;;6.26;100.00
24666;BME280;29726;53.532;-1.478;2024-03-02T01:25:43;98069.66;;;6.28;100.00
24666;BME280;29726;53.532;-1.478;2024-03-02T01:28:27;98073.44;;;6.31;100.00
24666;BME280;29726;53.532;-1.478;2024-03-02T01:31:11;98063.63;;;6.30;100.00
24666;BME280;29726;53.532;-1.478;2024-03-02T01:33:55;98058.59;;;6.28;100.00
24666;BME280;29726;53.532;-1.478;2024-03-02T01:36:39;98057.56;;;6.26;100.00
24666;BME280;29726;53.532;-1.478;2024-03-02T01:39:23;98065.38;;;6.33;100.00
24666;BME280;29726;53.532;-1.478;2024-03-02T01:42:07;98062.63;;;6.33;100.00
24666;BME280;29726;53.532;-1.478;2024-03-02T01:44:51;98061.88;;;6.32;100.00
24666;BME280;29726;53.532;-1.478;2024-03-02T01:47:35;98060.84;;;6.30;100.00
24666;BME280;29726;53.532;-1.478;2024-03-02T01:50:31;98058.31;;;6.26;100.00
24666;BME280;29726;53.532;-1.478;2024-03-02T01:53:15;98055.09;;;6.33;100.00
24666;BME280;29726;53.532;-1.478;2024-03-02T01:56:00;98057.09;;;6.33;100.00
24666;BME280;29726;53.532;-1.478;2024-03-02T01:58:45;98044.22;;;6.30;100.00
24666;BME280;29726;53.532;-1.478;2024-03-02T02:01:29;98040.69;;;6.24;100.00
24666;BME280;29726;53.532;-1.478;2024-03-02T02:04:12;98043.72;;;6.26;100.00
24666;BME280;29726;53.532;-1.478;2024-03-02T02:06:57;98047.00;;;6.30;100.00
24666;BME280;29726;53.532;-1.478;2024-03-02T02:09:41;98040.97;;;6.31;100.00
24666;BME280;29726;53.532;-1.478;2024-03-02T02:12:26;98039.47;;;6.30;100.00
24666;BME280;29726;53.532;-1.478;2024-03-02T02:15:26;98043.50;;;6.29;100.00
24666;BME280;29726;53.532;-1.478;2024-03-02T02:18:11;98041.97;;;6.28;100.00
24666;BME280;29726;53.532;-1.478;2024-03-02T02:20:55;98032.59;;;6.20;100.00
24666;BME280;29726;53.532;-1.478;2024-03-02T02:23:39;98034.94;;;6.27;100.00
24666;BME280;29726;53.532;-1.478;2024-03-02T02:26:23;98034.38;;;6.23;100.00
24666;BME280;29726;53.532;-1.478;2024-03-02T02:29:07;98038.19;;;6.26;100.00
24666;BME280;29726;53.532;-1.478;2024-03-02T02:31:51;98028.59;;;6.21;100.00
24666;BME280;29726;53.532;-1.478;2024-03-02T02:34:35;98029.63;;;6.24;100.00
24666;BME280;29726;53.532;-1.478;2024-03-02T02:37:19;98024.06;;;6.24;100.00
24666;BME280;29726;53.532;-1.478;2024-03-02T02:40:03;98022.31;;;6.21;100.00
24666;BME280;29726;53.532;-1.478;2024-03-02T02:42:48;98019.78;;;6.23;100.00
24666;BME280;29726;53.532;-1.478;2024-03-02T02:45:32;98023.31;;;6.23;100.00
24666;BME280;29726;53.532;-1.478;2024-03-02T02:48:16;98032.88;;;6.22;100.00
24666;BME280;29726;53.532;-1.478;2024-03-02T02:51:00;98001.88;;;6.07;100.00
24666;BME280;29726;53.532;-1.478;2024-03-02T02:53:44;98033.66;;;6.28;100.00
24666;BME280;29726;53.532;-1.478;2024-03-02T02:56:29;98013.47;;;6.22;100.00
24666;BME280;29726;53.532;-1.478;2024-03-02T02:59:13;98029.63;;;6.29;100.00
24666;BME280;29726;53.532;-1.478;2024-03-02T03:01:57;98018.75;;;6.20;100.00
24666;BME280;29726;53.532;-1.478;2024-03-02T03:04:41;98031.38;;;6.27;100.00
24666;BME280;29726;53.532;-1.478;2024-03-02T03:07:25;98016.75;;;6.21;100.00
24666;BME280;29726;53.532;-1.478;2024-03-02T03:10:09;98024.34;;;6.26;100.00
24666;BME280;29726;53.532;-1.478;2024-03-02T03:12:53;98023.84;;;6.27;100.00
24666;BME280;29726;53.532;-1.478;2024-03-02T03:15:39;98025.59;;;6.25;100.00
24666;BME280;29726;53.532;-1.478;2024-03-02T03:18:23;98013.22;;;6.20;100.00
24666;BME280;29726;53.532;-1.478;2024-03-02T03:21:07;98002.16;;;6.26;100.00
24666;BME280;29726;53.532;-1.478;2024-03-02T03:23:51;98009.44;;;6.23;100.00
24666;BME280;29726;53.532;-1.478;2024-03-02T03:26:36;98013.25;;;6.26;100.00
24666;BME280;29726;53.532;-1.478;2024-03-02T03:29:20;97995.88;;;6.20;100.00
24666;BME280;29726;53.532;-1.478;2024-03-02T03:32:04;97997.88;;;6.19;100.00
24666;BME280;29726;53.532;-1.478;2024-03-02T03:34:50;97969.91;;;6.06;100.00
24666;BME280;29726;53.532;-1.478;2024-03-02T03:37:34;97991.59;;;6.24;100.00
24666;BME280;29726;53.532;-1.478;2024-03-02T03:40:18;97991.81;;;6.15;100.00
24666;BME280;29726;53.532;-1.478;2024-03-02T03:43:03;98014.75;;;6.27;100.00
24666;BME280;29726;53.532;-1.478;2024-03-02T03:45:47;98011.75;;;6.25;100.00
24666;BME280;29726;53.532;-1.478;2024-03-02T03:48:31;97999.13;;;6.18;100.00
24666;BME280;29726;53.532;-1.478;2024-03-02T03:51:16;98011.75;;;6.25;100.00
24666;BME280;29726;53.532;-1.478;2024-03-02T03:54:00;97994.88;;;6.23;100.00
24666;BME280;29726;53.532;-1.478;2024-03-02T03:56:44;97998.88;;;6.22;100.00
24666;BME280;29726;53.532;-1.478;2024-03-02T03:59:28;97995.59;;;6.23;100.00
24666;BME280;29726;53.532;-1.478;2024-03-02T04:02:12;98005.94;;;6.23;100.00
24666;BME280;29726;53.532;-1.478;2024-03-02T04:04:56;97997.63;;;6.23;100.00
24666;BME280;29726;53.532;-1.478;2024-03-02T04:07:40;98007.94;;;6.22;100.00
24666;BME280;29726;53.532;-1.478;2024-03-02T04:10:24;98005.94;;;6.23;100.00
24666;BME280;29726;53.532;-1.478;2024-03-02T04:13:08;98009.97;;;6.22;100.00
24666;BME280;29726;53.532;-1.478;2024-03-02T04:15:52;98006.19;;;6.25;100.00
24666;BME280;29726;53.532;-1.478;2024-03-02T04:18:37;98011.75;;;6.25;100.00
24666;BME280;29726;53.532;-1.478;2024-03-02T04:21:23;97996.31;;;6.13;100.00
24666;BME280;29726;53.532;-1.478;2024-03-02T04:24:07;98012.75;;;6.22;100.00
24666;BME280;29726;53.532;-1.478;2024-03-02T04:26:51;98013.75;;;6.24;100.00
24666;BME280;29726;53.532;-1.478;2024-03-02T04:29:36;97992.31;;;6.14;100.00
24666;BME280;29726;53.532;-1.478;2024-03-02T04:32:19;98018.53;;;6.24;100.00
24666;BME280;29726;53.532;-1.478;2024-03-02T04:35:04;98000.88;;;6.21;100.00
24666;BME280;29726;53.532;-1.478;2024-03-02T04:37:48;98006.69;;;6.23;100.00
24666;BME280;29726;53.532;-1.478;2024-03-02T04:40:32;98013.47;;;6.22;100.00
24666;BME280;29726;53.532;-1.478;2024-03-02T04:43:16;98026.31;;;6.25;100.00
24666;BME280;29726;53.532;-1.478;2024-03-02T04:46:01;98017.28;;;6.25;100.00
24666;BME280;29726;53.532;-1.478;2024-03-02T04:48:45;98012.22;;;6.23;100.00
24666;BME280;29726;53.532;-1.478;2024-03-02T04:51:29;98015.75;;;6.24;100.00
24666;BME280;29726;53.532;-1.478;2024-03-02T04:54:13;98006.44;;;6.16;100.00
24666;BME280;29726;53.532;-1.478;2024-03-02T04:56:58;98008.69;;;6.17;100.00
24666;BME280;29726;53.532;-1.478;2024-03-02T04:59:42;98014.50;;;6.25;100.00
24666;BME280;29726;53.532;-1.478;2024-03-02T05:02:26;98010.97;;;6.19;100.00
24666;BME280;29726;53.532;-1.478;2024-03-02T05:05:10;98023.06;;;6.27;100.00
24666;BME280;29726;53.532;-1.478;2024-03-02T05:07:54;98007.19;;;6.22;100.00
24666;BME280;29726;53.532;-1.478;2024-03-02T05:10:37;98005.69;;;6.21;100.00
24666;BME280;29726;53.532;-1.478;2024-03-02T05:13:21;98013.75;;;6.24;100.00
24666;BME280;29726;53.532;-1.478;2024-03-02T05:16:05;98010.22;;;6.24;100.00
24666;BME280;29726;53.532;-1.478;2024-03-02T05:18:49;98015.25;;;6.25;100.00
24666;BME280;29726;53.532;-1.478;2024-03-02T05:21:34;98022.59;;;6.28;100.00
24666;BME280;29726;53.532;-1.478;2024-03-02T05:24:18;98010.72;;;6.28;100.00
24666;BME280;29726;53.532;-1.478;2024-03-02T05:27:03;98019.31;;;6.30;100.00
24666;BME280;29726;53.532;-1.478;2024-03-02T05:29:47;98017.75;;;6.23;100.00
24666;BME280;29726;53.532;-1.478;2024-03-02T05:32:31;98010.00;;;6.27;100.00
24666;BME280;29726;53.532;-1.478;2024-03-02T05:35:15;98006.44;;;6.27;100.00
24666;BME280;29726;53.532;-1.478;2024-03-02T05:37:59;98011.50;;;6.28;100.00
24666;BME280;29726;53.532;-1.478;2024-03-02T05:40:43;98001.16;;;6.23;100.00
24666;BME280;29726;53.532;-1.478;2024-03-02T05:43:27;98022.06;;;6.30;100.00
24666;BME280;29726;53.532;-1.478;2024-03-02T05:46:11;98020.34;;;6.32;100.00
24666;BME280;29726;53.532;-1.478;2024-03-02T05:48:55;98030.16;;;6.33;100.00
24666;BME280;29726;53.532;-1.478;2024-03-02T05:51:39;98021.84;;;6.33;100.00
24666;BME280;29726;53.532;-1.478;2024-03-02T05:54:23;98005.66;;;6.15;100.00
24666;BME280;29726;53.532;-1.478;2024-03-02T05:57:07;98027.38;;;6.33;100.00
24666;BME280;29726;53.532;-1.478;2024-03-02T06:00:07;98022.59;;;6.34;100.00
24666;BME280;29726;53.532;-1.478;2024-03-02T06:02:52;98020.84;;;6.36;100.00
24666;BME280;29726;53.532;-1.478;2024-03-02T06:05:36;98010.75;;;6.33;100.00
24666;BME280;29726;53.532;-1.478;2024-03-02T06:08:20;98015.53;;;6.33;100.00
24666;BME280;29726;53.532;-1.478;2024-03-02T06:11:04;97985.03;;;6.16;100.00
24666;BME280;29726;53.532;-1.478;2024-03-02T06:13:48;98011.75;;;6.36;100.00
24666;BME280;29726;53.532;-1.478;2024-03-02T06:16:32;98023.38;;;6.40;100.00
24666;BME280;29726;53.532;-1.478;2024-03-02T06:19:16;98021.06;;;6.33;100.00
24666;BME280;29726;53.532;-1.478;2024-03-02T06:22:01;98024.63;;;6.39;100.00
24666;BME280;29726;53.532;-1.478;2024-03-02T06:24:45;98028.16;;;6.39;100.00
24666;BME280;29726;53.532;-1.478;2024-03-02T06:27:29;98030.19;;;6.39;100.00
24666;BME280;29726;53.532;-1.478;2024-03-02T06:30:13;98036.22;;;6.43;100.00
24666;BME280;29726;53.532;-1.478;2024-03-02T06:32:58;98042.25;;;6.41;100.00
24666;BME280;29726;53.532;-1.478;2024-03-02T06:35:42;98032.44;;;6.40;100.00
24666;BME280;29726;53.532;-1.478;2024-03-02T06:38:26;98036.47;;;6.39;100.00
24666;BME280;29726;53.532;-1.478;2024-03-02T06:41:09;98040.75;;;6.40;100.00
24666;BME280;29726;53.532;-1.478;2024-03-02T06:43:54;98048.56;;;6.42;100.00
24666;BME280;29726;53.532;-1.478;2024-03-02T06:46:43;98050.81;;;6.43;100.00
24666;BME280;29726;53.532;-1.478;2024-03-02T06:49:27;98015.00;;;6.23;100.00
24666;BME280;29726;53.532;-1.478;2024-03-02T06:52:11;98051.06;;;6.45;100.00
24666;BME280;29726;53.532;-1.478;2024-03-02T06:54:55;98047.81;;;6.47;100.00
24666;BME280;29726;53.532;-1.478;2024-03-02T06:57:38;98035.19;;;6.40;100.00
24666;BME280;29726;53.532;-1.478;2024-03-02T07:00:22;98019.81;;;6.28;100.00
24666;BME280;29726;53.532;-1.478;2024-03-02T07:03:06;98056.38;;;6.49;100.00
24666;BME280;29726;53.532;-1.478;2024-03-02T07:05:50;98057.38;;;6.46;100.00
24666;BME280;29726;53.532;-1.478;2024-03-02T07:08:34;98063.44;;;6.50;100.00
24666;BME280;29726;53.532;-1.478;2024-03-02T07:11:18;98054.34;;;6.49;100.00
24666;BME280;29726;53.532;-1.478;2024-03-02T07:14:02;98064.22;;;6.50;100.00
24666;BME280;29726;53.532;-1.478;2024-03-02T07:16:47;98058.38;;;6.48;100.00
24666;BME280;29726;53.532;-1.478;2024-03-02T07:19:31;98057.13;;;6.49;100.00
24666;BME280;29726;53.532;-1.478;2024-03-02T07:22:15;98062.97;;;6.51;100.00
24666;BME280;29726;53.532;-1.478;2024-03-02T07:24:58;98056.66;;;6.51;100.00
24666;BME280;29726;53.532;-1.478;2024-03-02T07:27:42;98060.19;;;6.51;100.00
24666;BME280;29726;53.532;-1.478;2024-03-02T07:30:27;98069.50;;;6.53;100.00
24666;BME280;29726;53.532;-1.478;2024-03-02T07:33:11;98071.53;;;6.53;100.00
24666;BME280;29726;53.532;-1.478;2024-03-02T07:35:56;98066.97;;;6.55;100.00
24666;BME280;29726;53.532;-1.478;2024-03-02T07:38:40;98060.69;;;6.55;100.00
24666;BME280;29726;53.532;-1.478;2024-03-02T07:41:25;98069.50;;;6.53;100.00
24666;BME280;29726;53.532;-1.478;2024-03-02T07:44:09;98067.25;;;6.57;100.00
24666;BME280;29726;53.532;-1.478;2024-03-02T07:46:53;98074.53;;;6.60;100.00
24666;BME280;29726;53.532;-1.478;2024-03-02T07:49:38;98060.94;;;6.52;100.00
24666;BME280;29726;53.532;-1.478;2024-03-02T07:52:22;98074.53;;;6.60;100.00
24666;BME280;29726;53.532;-1.478;2024-03-02T07:55:06;98068.25;;;6.60;100.00
24666;BME280;29726;53.532;-1.478;2024-03-02T07:57:51;98060.69;;;6.55;100.00
24666;BME280;29726;53.532;-1.478;2024-03-02T08:00:35;98074.53;;;6.60;100.00
24666;BME280;29726;53.532;-1.478;2024-03-02T08:03:19;98066.00;;;6.64;100.00
24666;BME280;29726;53.532;-1.478;2024-03-02T08:06:03;98053.16;;;6.61;100.00
24666;BME280;29726;53.532;-1.478;2024-03-02T08:08:47;98052.63;;;6.57;100.00
24666;BME280;29726;53.532;-1.478;2024-03-02T08:11:31;98068.28;;;6.65;100.00
24666;BME280;29726;53.532;-1.478;2024-03-02T08:14:15;98064.50;;;6.63;100.00
24666;BME280;29726;53.532;-1.478;2024-03-02T08:16:59;98057.66;;;6.58;100.00
24666;BME280;29726;53.532;-1.478;2024-03-02T08:19:45;98068.03;;;6.69;100.00
24666;BME280;29726;53.532;-1.478;2024-03-02T08:22:29;98062.75;;;6.65;100.00
24666;BME280;29726;53.532;-1.478;2024-03-02T08:25:13;98068.28;;;6.71;100.00
24666;BME280;29726;53.532;-1.478;2024-03-02T08:27:58;98075.06;;;6.70;100.00
24666;BME280;29726;53.532;-1.478;2024-03-02T08:30:42;98083.16;;;6.73;100.00
24666;BME280;29726;53.532;-1.478;2024-03-02T08:33:25;98081.91;;;6.74;100.00
24666;BME280;29726;53.532;-1.478;2024-03-02T08:36:09;98078.88;;;6.72;100.00
24666;BME280;29726;53.532;-1.478;2024-03-02T08:38:54;98081.41;;;6.76;100.00
24666;BME280;29726;53.532;-1.478;2024-03-02T08:41:38;98075.09;;;6.75;100.00
24666;BME280;29726;53.532;-1.478;2024-03-02T08:44:22;98078.91;;;6.78;100.00
24666;BME280;29726;53.532;-1.478;2024-03-02T08:47:06;98058.97;;;6.68;100.00
24666;BME280;29726;53.532;-1.478;2024-03-02T08:49:50;98081.16;;;6.79;100.00
24666;BME280;29726;53.532;-1.478;2024-03-02T08:52:34;98063.50;;;6.71;100.00
24666;BME280;29726;53.532;-1.478;2024-03-02T08:55:17;98066.53;;;6.73;100.00
24666;BME280;29726;53.532;-1.478;2024-03-02T08:58:02;98082.91;;;6.82;100.00
24666;BME280;29726;53.532;-1.478;2024-03-02T09:00:47;98083.94;;;6.85;100.00
24666;BME280;29726;53.532;-1.478;2024-03-02T09:03:31;98066.03;;;6.80;100.00
24666;BME280;29726;53.532;-1.478;2024-03-02T09:06:17;98075.13;;;6.86;100.00
24666;BME280;29726;53.532;-1.478;2024-03-02T09:09:01;98074.38;;;6.86;100.00
24666;BME280;29726;53.532;-1.478;2024-03-02T09:11:46;98075.41;;;6.88;100.00
24666;BME280;29726;53.532;-1.478;2024-03-02T09:14:30;98072.88;;;6.90;100.00
24666;BME280;29726;53.532;-1.478;2024-03-02T09:17:14;98074.88;;;6.90;100.00
24666;BME280;29726;53.532;-1.478;2024-03-02T09:19:58;98070.59;;;6.89;100.00
24666;BME280;29726;53.532;-1.478;2024-03-02T09:22:42;98071.38;;;6.89;100.00
24666;BME280;29726;53.532;-1.478;2024-03-02T09:25:29;98067.59;;;6.92;100.00
24666;BME280;29726;53.532;-1.478;2024-03-02T09:28:15;98073.38;;;6.94;100.00
24666;BME280;29726;53.532;-1.478;2024-03-02T09:31:00;98072.38;;;6.97;100.00
24666;BME280;29726;53.532;-1.478;2024-03-02T09:33:44;98061.28;;;6.97;100.00
24666;BME280;29726;53.532;-1.478;2024-03-02T09:36:28;98055.00;;;6.97;100.00
24666;BME280;29726;53.532;-1.478;2024-03-02T09:39:12;98038.59;;;6.93;100.00
24666;BME280;29726;53.532;-1.478;2024-03-02T09:41:57;98046.66;;;7.02;100.00
24666;BME280;29726;53.532;-1.478;2024-03-02T09:44:42;98040.34;;;6.96;100.00
24666;BME280;29726;53.532;-1.478;2024-03-02T09:47:26;98041.38;;;7.04;100.00
24666;BME280;29726;53.532;-1.478;2024-03-02T09:50:10;98033.06;;;6.99;100.00
24666;BME280;29726;53.532;-1.478;2024-03-02T09:52:54;98038.34;;;7.08;100.00
24666;BME280;29726;53.532;-1.478;2024-03-02T09:55:38;98032.31;;;7.04;100.00
24666;BME280;29726;53.532;-1.478;2024-03-02T09:58:26;98037.84;;;7.09;100.00
24666;BME280;29726;53.532;-1.478;2024-03-02T10:01:10;98036.84;;;7.12;100.00
24666;BME280;29726;53.532;-1.478;2024-03-02T10:03:55;98031.31;;;7.12;100.00
24666;BME280;29726;53.532;-1.478;2024-03-02T10:06:42;98025.75;;;7.12;100.00
24666;BME280;29726;53.532;-1.478;2024-03-02T10:09:29;98019.97;;;7.10;100.00
24666;BME280;29726;53.532;-1.478;2024-03-02T10:12:16;98018.44;;;7.09;100.00
24666;BME280;29726;53.532;-1.478;2024-03-02T10:15:04;98021.72;;;7.13;100.00
24666;BME280;29726;53.532;-1.478;2024-03-02T10:17:49;98011.13;;;7.17;100.00
24666;BME280;29726;53.532;-1.478;2024-03-02T10:20:33;98014.13;;;7.19;100.00
24666;BME280;29726;53.532;-1.478;2024-03-02T10:23:18;98008.09;;;7.15;100.00
24666;BME280;29726;53.532;-1.478;2024-03-02T10:26:16;98019.94;;;7.21;100.00
24666;BME280;29726;53.532;-1.478;2024-03-02T10:29:01;98007.81;;;7.24;100.00
24666;BME280;29726;53.532;-1.478;2024-03-02T10:31:46;98010.84;;;7.26;100.00
24666;BME280;29726;53.532;-1.478;2024-03-02T10:34:31;98011.34;;;7.30;100.00
24666;BME280;29726;53.532;-1.478;2024-03-02T10:37:15;98001.50;;;7.29;100.00
24666;BME280;29726;53.532;-1.478;2024-03-02T10:40:05;98005.06;;;7.35;100.00
24666;BME280;29726;53.532;-1.478;2024-03-02T10:42:52;98012.63;;;7.40;100.00
24666;BME280;29726;53.532;-1.478;2024-03-02T10:45:36;98001.00;;;7.42;100.00
24666;BME280;29726;53.532;-1.478;2024-03-02T10:48:20;98005.56;;;7.45;100.00
24666;BME280;29726;53.532;-1.478;2024-03-02T10:51:05;97988.91;;;7.39;100.00
24666;BME280;29726;53.532;-1.478;2024-03-02T10:53:49;97996.47;;;7.44;100.00
24666;BME280;29726;53.532;-1.478;2024-03-02T10:56:44;98010.34;;;7.50;100.00
24666;BME280;29726;53.532;-1.478;2024-03-02T10:59:35;98011.06;;;7.50;100.00
24666;BME280;29726;53.532;-1.478;2024-03-02T11:02:21;98005.03;;;7.52;100.00
24666;BME280;29726;53.532;-1.478;2024-03-02T11:05:07;97999.72;;;7.54;100.00
24666;BME280;29726;53.532;-1.478;2024-03-02T11:08:01;97995.94;;;7.51;100.00
24666;BME280;29726;53.532;-1.478;2024-03-02T11:10:52;98016.63;;;7.56;100.00
24666;BME280;29726;53.532;-1.478;2024-03-02T11:13:38;97998.72;;;7.51;100.00
24666;BME280;29726;53.532;-1.478;2024-03-02T11:16:36;97990.38;;;7.51;100.00
24666;BME280;29726;53.532;-1.478;2024-03-02T11:19:23;97999.22;;;7.55;100.00
24666;BME280;29726;53.532;-1.478;2024-03-02T11:22:09;97995.44;;;7.53;100.00
24666;BME280;29726;53.532;-1.478;2024-03-02T11:24:53;97985.34;;;7.55;100.00
24666;BME280;29726;53.532;-1.478;2024-03-02T11:33:29;97982.28;;;7.64;100.00
24666;BME280;29726;53.532;-1.478;2024-03-02T11:36:15;97980.00;;;7.63;100.00
24666;BME280;29726;53.532;-1.478;2024-03-02T11:39:00;97980.78;;;7.63;100.00
24666;BME280;29726;53.532;-1.478;2024-03-02T11:41:45;97985.31;;;7.66;100.00
24666;BME280;29726;53.532;-1.478;2024-03-02T11:44:29;97947.25;;;7.50;100.00
24666;BME280;29726;53.532;-1.478;2024-03-02T11:47:15;97972.94;;;7.73;100.00
24666;BME280;29726;53.532;-1.478;2024-03-02T11:49:59;97978.47;;;7.73;100.00
24666;BME280;29726;53.532;-1.478;2024-03-02T11:52:44;97971.38;;;7.77;100.00
24666;BME280;29726;53.532;-1.478;2024-03-02T11:55:30;97957.78;;;7.74;100.00
24666;BME280;29726;53.532;-1.478;2024-03-02T11:58:17;97962.31;;;7.77;100.00
24666;BME280;29726;53.532;-1.478;2024-03-02T12:01:04;97966.84;;;7.80;100.00
24666;BME280;29726;53.532;-1.478;2024-03-02T12:03:49;97972.88;;;7.84;100.00
24666;BME280;29726;53.532;-1.478;2024-03-02T12:06:32;97960.25;;;7.83;100.00
24666;BME280;29726;53.532;-1.478;2024-03-02T12:09:16;97948.13;;;7.86;100.00
24666;BME280;29726;53.532;-1.478;2024-03-02T12:12:06;97947.38;;;7.85;100.00
24666;BME280;29726;53.532;-1.478;2024-03-02T12:14:52;97947.63;;;7.93;100.00
24666;BME280;29726;53.532;-1.478;2024-03-02T12:17:36;97937.56;;;7.84;100.00
24666;BME280;29726;53.532;-1.478;2024-03-02T12:20:22;97941.28;;;7.92;100.00
24666;BME280;29726;53.532;-1.478;2024-03-02T12:23:07;97939.00;;;7.96;100.00
24666;BME280;29726;53.532;-1.478;2024-03-02T12:25:52;97937.97;;;7.99;100.00
24666;BME280;29726;53.532;-1.478;2024-03-02T12:28:36;97908.03;;;7.81;100.00
24666;BME280;29726;53.532;-1.478;2024-03-02T12:31:20;97929.38;;;8.03;100.00
24666;BME280;29726;53.532;-1.478;2024-03-02T12:34:04;97931.66;;;8.04;100.00
24666;BME280;29726;53.532;-1.478;2024-03-02T12:36:49;97917.25;;;8.00;100.00
24666;BME280;29726;53.532;-1.478;2024-03-02T12:39:36;97926.59;;;8.08;100.00
24666;BME280;29726;53.532;-1.478;2024-03-02T12:42:20;97899.09;;;7.99;100.00
24666;BME280;29726;53.532;-1.478;2024-03-02T12:45:04;97920.50;;;8.10;100.00
24666;BME280;29726;53.532;-1.478;2024-03-02T12:47:49;97916.97;;;8.15;100.00
24666;BME280;29726;53.532;-1.478;2024-03-02T12:50:34;97916.44;;;8.16;100.00
24666;BME280;29726;53.532;-1.478;2024-03-02T12:53:18;97912.13;;;8.15;100.00
24666;BME280;29726;53.532;-1.478;2024-03-02T12:56:02;97921.22;;;8.21;100.00
24666;BME280;29726;53.532;-1.478;2024-03-02T12:58:47;97916.94;;;8.20;100.00
24666;BME280;29726;53.532;-1.478;2024-03-02T13:01:31;97894.47;;;8.18;100.00
24666;BME280;29726;53.532;-1.478;2024-03-02T13:04:16;97915.38;;;8.30;100.00
24666;BME280;29726;53.532;-1.478;2024-03-02T13:07:00;97907.28;;;8.32;100.00
24666;BME280;29726;53.532;-1.478;2024-03-02T13:09:46;97915.84;;;8.34;100.00
24666;BME280;29726;53.532;-1.478;2024-03-02T13:12:30;97914.31;;;8.38;100.00
24666;BME280;29726;53.532;-1.478;2024-03-02T13:15:15;97897.44;;;8.31;100.00
24666;BME280;29726;53.532;-1.478;2024-03-02T13:18:00;97901.16;;;8.39;100.00
24666;BME280;29726;53.532;-1.478;2024-03-02T13:20:44;97905.69;;;8.42;100.00
24666;BME280;29726;53.532;-1.478;2024-03-02T13:23:28;97901.34;;;8.46;100.00
24666;BME280;29726;53.532;-1.478;2024-03-02T13:26:14;97899.09;;;8.45;100.00
24666;BME280;29726;53.532;-1.478;2024-03-02T13:28:58;97893.50;;;8.50;100.00
24666;BME280;29726;53.532;-1.478;2024-03-02T13:31:42;97896.00;;;8.54;100.00
24666;BME280;29726;53.532;-1.478;2024-03-02T13:34:27;97885.13;;;8.56;100.00
24666;BME280;29726;53.532;-1.478;2024-03-02T13:37:11;97873.22;;;8.55;100.00
24666;BME280;29726;53.532;-1.478;2024-03-02T13:39:55;97871.19;;;8.61;100.00
24666;BME280;29726;53.532;-1.478;2024-03-02T13:42:40;97880.78;;;8.60;100.00
24666;BME280;29726;53.532;-1.478;2024-03-02T13:45:24;97874.44;;;8.65;100.00
24666;BME280;29726;53.532;-1.478;2024-03-02T13:48:08;97874.44;;;8.65;100.00
24666;BME280;29726;53.532;-1.478;2024-03-02T13:50:52;97880.97;;;8.68;100.00
24666;BME280;29726;53.532;-1.478;2024-03-02T13:53:36;97881.19;;;8.70;100.00
24666;BME280;29726;53.532;-1.478;2024-03-02T13:56:20;97888.75;;;8.75;100.00
24666;BME280;29726;53.532;-1.478;2024-03-02T13:59:05;97891.31;;;8.73;100.00
24666;BME280;29726;53.532;-1.478;2024-03-02T14:01:49;97892.75;;;8.79;100.00
24666;BME280;29726;53.532;-1.478;2024-03-02T14:04:34;97875.34;;;8.73;100.00
24666;BME280;29726;53.532;-1.478;2024-03-02T14:07:19;97862.72;;;8.72;100.00
24666;BME280;29726;53.532;-1.478;2024-03-02T14:10:03;97879.56;;;8.85;100.00
24666;BME280;29726;53.532;-1.478;2024-03-02T14:12:47;97879.81;;;8.87;100.00
24666;BME280;29726;53.532;-1.478;2024-03-02T14:15:31;97878.00;;;8.90;100.00
24666;BME280;29726;53.532;-1.478;2024-03-02T14:18:15;97871.91;;;8.91;100.00
24666;BME280;29726;53.532;-1.478;2024-03-02T14:20:59;97875.44;;;8.92;100.00
24666;BME280;29726;53.532;-1.478;2024-03-02T14:23:42;97875.41;;;8.97;100.00
24666;BME280;29726;53.532;-1.478;2024-03-02T14:26:26;97870.88;;;8.94;100.00
24666;BME280;29726;53.532;-1.478;2024-03-02T14:29:11;97877.44;;;8.97;100.00
24666;BME280;29726;53.532;-1.478;2024-03-02T14:31:55;97875.13;;;9.01;100.00